sensor_id;sensor_type;location;lat;lon;timestamp;P1;durP1;ratioP1;P2;durP2;ratioP2
74259;SDS011;62630;55.874;37.516;2023-01-25T00:00:41;4.60;;;2.83;;
74259;SDS011;62630;55.874;37.516;2023-01-25T00:03:07;6.75;;;3.60;;
74259;SDS011;62630;55.874;37.516;2023-01-25T00:05:32;5.82;;;3.17;;
74259;SDS011;62630;55.874;37.516;2023-01-25T00:07:58;7.53;;;3.38;;
74259;SDS011;62630;55.874;37.516;2023-01-25T00:10:23;10.02;;;3.78;;
74259;SDS011;62630;55.874;37.516;2023-01-25T00:12:51;5.40;;;3.40;;
74259;SDS011;62630;55.874;37.516;2023-01-25T00:15:16;5.22;;;2.65;;
74259;SDS011;62630;55.874;37.516;2023-01-25T00:17:42;5.57;;;3.40;;
74259;SDS011;62630;55.874;37.516;2023-01-25T00:20:08;5.88;;;3.42;;
74259;SDS011;62630;55.874;37.516;2023-01-25T00:22:34;5.43;;;3.08;;
74259;SDS011;62630;55.874;37.516;2023-01-25T00:25:00;6.13;;;3.22;;
74259;SDS011;62630;55.874;37.516;2023-01-25T00:27:25;5.45;;;2.70;;
74259;SDS011;62630;55.874;37.516;2023-01-25T00:29:51;6.22;;;3.22;;
74259;SDS011;62630;55.874;37.516;2023-01-25T00:34:43;8.35;;;3.08;;
74259;SDS011;62630;55.874;37.516;2023-01-25T00:37:13;6.05;;;3.15;;
74259;SDS011;62630;55.874;37.516;2023-01-25T00:39:47;6.63;;;3.15;;
74259;SDS011;62630;55.874;37.516;2023-01-25T00:42:13;5.05;;;2.95;;
74259;SDS011;62630;55.874;37.516;2023-01-25T00:47:06;6.22;;;3.40;;
74259;SDS011;62630;55.874;37.516;2023-01-25T00:49:31;6.28;;;3.30;;
74259;SDS011;62630;55.874;37.516;2023-01-25T00:51:57;5.60;;;3.03;;
74259;SDS011;62630;55.874;37.516;2023-01-25T00:54:24;6.07;;;2.97;;
74259;SDS011;62630;55.874;37.516;2023-01-25T00:56:50;7.22;;;3.35;;
74259;SDS011;62630;55.874;37.516;2023-01-25T00:59:20;5.82;;;3.17;;
74259;SDS011;62630;55.874;37.516;2023-01-25T01:01:47;3.70;;;2.72;;
74259;SDS011;62630;55.874;37.516;2023-01-25T01:04:15;7.80;;;3.40;;
74259;SDS011;62630;55.874;37.516;2023-01-25T01:06:41;6.57;;;3.60;;
74259;SDS011;62630;55.874;37.516;2023-01-25T01:09:10;5.30;;;3.15;;
74259;SDS011;62630;55.874;37.516;2023-01-25T01:11:38;5.53;;;3.25;;
74259;SDS011;62630;55.874;37.516;2023-01-25T01:14:03;5.47;;;2.50;;
74259;SDS011;62630;55.874;37.516;2023-01-25T01:16:29;5.75;;;2.58;;
74259;SDS011;62630;55.874;37.516;2023-01-25T01:18:54;6.63;;;3.10;;
74259;SDS011;62630;55.874;37.516;2023-01-25T01:21:20;6.32;;;2.92;;
74259;SDS011;62630;55.874;37.516;2023-01-25T01:23:46;5.25;;;3.22;;
74259;SDS011;62630;55.874;37.516;2023-01-25T01:26:12;4.90;;;3.08;;
74259;SDS011;62630;55.874;37.516;2023-01-25T01:28:39;5.18;;;2.90;;
74259;SDS011;62630;55.874;37.516;2023-01-25T01:31:06;6.43;;;3.08;;
74259;SDS011;62630;55.874;37.516;2023-01-25T01:33:42;4.95;;;2.75;;
74259;SDS011;62630;55.874;37.516;2023-01-25T01:36:11;5.47;;;2.90;;
74259;SDS011;62630;55.874;37.516;2023-01-25T01:38:39;5.55;;;2.67;;
74259;SDS011;62630;55.874;37.516;2023-01-25T01:41:06;3.35;;;2.35;;
74259;SDS011;62630;55.874;37.516;2023-01-25T01:43:32;4.38;;;2.92;;
74259;SDS011;62630;55.874;37.516;2023-01-25T01:46:40;5.97;;;2.83;;
74259;SDS011;62630;55.874;37.516;2023-01-25T01:49:21;4.50;;;2.47;;
74259;SDS011;62630;55.874;37.516;2023-01-25T01:52:02;4.95;;;2.75;;
74259;SDS011;62630;55.874;37.516;2023-01-25T01:54:38;4.40;;;2.72;;
74259;SDS011;62630;55.874;37.516;2023-01-25T01:59:50;4.75;;;2.30;;
74259;SDS011;62630;55.874;37.516;2023-01-25T02:02:21;4.10;;;2.92;;
74259;SDS011;62630;55.874;37.516;2023-01-25T02:04:49;5.28;;;3.00;;
74259;SDS011;62630;55.874;37.516;2023-01-25T02:07:18;5.28;;;2.80;;
74259;SDS011;62630;55.874;37.516;2023-01-25T02:09:47;4.78;;;2.92;;
74259;SDS011;62630;55.874;37.516;2023-01-25T02:12:15;5.03;;;2.47;;
74259;SDS011;62630;55.874;37.516;2023-01-25T02:14:52;5.30;;;2.65;;
74259;SDS011;62630;55.874;37.516;2023-01-25T02:17:37;3.90;;;2.35;;
74259;SDS011;62630;55.874;37.516;2023-01-25T02:25:30;4.32;;;2.42;;
74259;SDS011;62630;55.874;37.516;2023-01-25T02:28:01;4.13;;;2.20;;
74259;SDS011;62630;55.874;37.516;2023-01-25T02:30:31;3.58;;;2.60;;
74259;SDS011;62630;55.874;37.516;2023-01-25T02:32:58;4.47;;;2.53;;
74259;SDS011;62630;55.874;37.516;2023-01-25T02:35:36;3.80;;;2.33;;
74259;SDS011;62630;55.874;37.516;2023-01-25T02:38:04;4.78;;;2.83;;
74259;SDS011;62630;55.874;37.516;2023-01-25T02:40:31;3.63;;;2.40;;
74259;SDS011;62630;55.874;37.516;2023-01-25T02:43:05;4.95;;;2.63;;
74259;SDS011;62630;55.874;37.516;2023-01-25T02:45:30;5.15;;;2.58;;
74259;SDS011;62630;55.874;37.516;2023-01-25T02:47:57;5.38;;;2.33;;
74259;SDS011;62630;55.874;37.516;2023-01-25T02:50:22;5.53;;;3.20;;
74259;SDS011;62630;55.874;37.516;2023-01-25T02:52:48;3.35;;;2.30;;
74259;SDS011;62630;55.874;37.516;2023-01-25T02:55:13;4.90;;;2.28;;
74259;SDS011;62630;55.874;37.516;2023-01-25T02:57:39;3.95;;;2.30;;
74259;SDS011;62630;55.874;37.516;2023-01-25T03:00:05;5.22;;;3.10;;
74259;SDS011;62630;55.874;37.516;2023-01-25T03:02:31;4.53;;;2.53;;
74259;SDS011;62630;55.874;37.516;2023-01-25T03:04:57;5.25;;;2.80;;
74259;SDS011;62630;55.874;37.516;2023-01-25T03:07:23;5.43;;;2.95;;
74259;SDS011;62630;55.874;37.516;2023-01-25T03:09:48;6.47;;;3.00;;
74259;SDS011;62630;55.874;37.516;2023-01-25T03:12:14;5.65;;;2.75;;
74259;SDS011;62630;55.874;37.516;2023-01-25T03:14:39;4.28;;;2.75;;
74259;SDS011;62630;55.874;37.516;2023-01-25T03:17:05;4.00;;;2.47;;
74259;SDS011;62630;55.874;37.516;2023-01-25T03:19:30;5.13;;;2.85;;
74259;SDS011;62630;55.874;37.516;2023-01-25T03:21:55;5.32;;;2.97;;
74259;SDS011;62630;55.874;37.516;2023-01-25T03:24:22;5.60;;;2.90;;
74259;SDS011;62630;55.874;37.516;2023-01-25T03:26:49;3.83;;;2.78;;
74259;SDS011;62630;55.874;37.516;2023-01-25T03:29:41;4.90;;;2.40;;
74259;SDS011;62630;55.874;37.516;2023-01-25T03:32:06;4.45;;;2.85;;
74259;SDS011;62630;55.874;37.516;2023-01-25T03:34:34;5.28;;;3.05;;
74259;SDS011;62630;55.874;37.516;2023-01-25T03:36:59;5.22;;;2.67;;
74259;SDS011;62630;55.874;37.516;2023-01-25T03:39:28;5.45;;;3.20;;
74259;SDS011;62630;55.874;37.516;2023-01-25T03:41:53;4.80;;;2.75;;
74259;SDS011;62630;55.874;37.516;2023-01-25T03:44:19;5.93;;;2.95;;
74259;SDS011;62630;55.874;37.516;2023-01-25T03:46:44;5.75;;;2.97;;
74259;SDS011;62630;55.874;37.516;2023-01-25T03:49:10;5.80;;;3.22;;
74259;SDS011;62630;55.874;37.516;2023-01-25T03:51:36;7.20;;;3.15;;
74259;SDS011;62630;55.874;37.516;2023-01-25T03:54:02;6.22;;;3.20;;
74259;SDS011;62630;55.874;37.516;2023-01-25T03:56:28;7.05;;;3.28;;
74259;SDS011;62630;55.874;37.516;2023-01-25T03:58:54;4.50;;;3.05;;
74259;SDS011;62630;55.874;37.516;2023-01-25T04:01:21;5.82;;;2.72;;
74259;SDS011;62630;55.874;37.516;2023-01-25T04:03:46;5.85;;;3.03;;
74259;SDS011;62630;55.874;37.516;2023-01-25T04:06:12;9.07;;;3.40;;
74259;SDS011;62630;55.874;37.516;2023-01-25T04:08:37;6.47;;;3.08;;
74259;SDS011;62630;55.874;37.516;2023-01-25T04:11:04;6.05;;;3.20;;
74259;SDS011;62630;55.874;37.516;2023-01-25T04:13:31;5.90;;;2.90;;
74259;SDS011;62630;55.874;37.516;2023-01-25T04:16:01;5.72;;;3.60;;
74259;SDS011;62630;55.874;37.516;2023-01-25T04:18:27;4.70;;;2.80;;
74259;SDS011;62630;55.874;37.516;2023-01-25T04:20:53;4.72;;;3.15;;
74259;SDS011;62630;55.874;37.516;2023-01-25T04:23:20;4.25;;;2.85;;
74259;SDS011;62630;55.874;37.516;2023-01-25T04:25:53;5.03;;;2.92;;
74259;SDS011;62630;55.874;37.516;2023-01-25T04:28:18;5.05;;;3.17;;
74259;SDS011;62630;55.874;37.516;2023-01-25T04:30:44;6.93;;;3.10;;
74259;SDS011;62630;55.874;37.516;2023-01-25T04:33:09;5.28;;;3.88;;
74259;SDS011;62630;55.874;37.516;2023-01-25T04:35:36;6.78;;;3.28;;
74259;SDS011;62630;55.874;37.516;2023-01-25T04:38:02;5.15;;;3.28;;
74259;SDS011;62630;55.874;37.516;2023-01-25T04:40:28;6.03;;;3.70;;
74259;SDS011;62630;55.874;37.516;2023-01-25T04:42:54;5.90;;;3.22;;
74259;SDS011;62630;55.874;37.516;2023-01-25T04:45:19;4.75;;;3.33;;
74259;SDS011;62630;55.874;37.516;2023-01-25T04:47:45;6.32;;;3.35;;
74259;SDS011;62630;55.874;37.516;2023-01-25T04:50:11;5.35;;;3.30;;
74259;SDS011;62630;55.874;37.516;2023-01-25T04:52:36;6.97;;;4.07;;
74259;SDS011;62630;55.874;37.516;2023-01-25T04:55:02;8.65;;;4.15;;
74259;SDS011;62630;55.874;37.516;2023-01-25T04:57:27;6.57;;;3.40;;
74259;SDS011;62630;55.874;37.516;2023-01-25T04:59:53;5.38;;;3.58;;
74259;SDS011;62630;55.874;37.516;2023-01-25T05:02:18;5.60;;;3.22;;
74259;SDS011;62630;55.874;37.516;2023-01-25T05:04:44;6.28;;;3.55;;
74259;SDS011;62630;55.874;37.516;2023-01-25T05:07:09;6.78;;;4.10;;
74259;SDS011;62630;55.874;37.516;2023-01-25T05:09:35;6.07;;;3.65;;
74259;SDS011;62630;55.874;37.516;2023-01-25T05:12:00;5.57;;;3.22;;
74259;SDS011;62630;55.874;37.516;2023-01-25T05:14:26;5.13;;;3.40;;
74259;SDS011;62630;55.874;37.516;2023-01-25T05:16:52;5.13;;;3.35;;
74259;SDS011;62630;55.874;37.516;2023-01-25T05:19:17;6.53;;;3.47;;
74259;SDS011;62630;55.874;37.516;2023-01-25T05:21:43;6.53;;;3.85;;
74259;SDS011;62630;55.874;37.516;2023-01-25T05:24:29;6.50;;;3.83;;
74259;SDS011;62630;55.874;37.516;2023-01-25T05:26:56;5.38;;;3.25;;
74259;SDS011;62630;55.874;37.516;2023-01-25T05:29:26;6.63;;;3.40;;
74259;SDS011;62630;55.874;37.516;2023-01-25T05:31:52;6.32;;;3.15;;
74259;SDS011;62630;55.874;37.516;2023-01-25T05:34:18;5.75;;;3.85;;
74259;SDS011;62630;55.874;37.516;2023-01-25T05:36:43;5.85;;;3.53;;
74259;SDS011;62630;55.874;37.516;2023-01-25T05:39:09;7.70;;;4.20;;
74259;SDS011;62630;55.874;37.516;2023-01-25T05:41:35;5.03;;;3.10;;
74259;SDS011;62630;55.874;37.516;2023-01-25T05:44:01;6.80;;;3.78;;
74259;SDS011;62630;55.874;37.516;2023-01-25T05:46:28;6.15;;;3.63;;
74259;SDS011;62630;55.874;37.516;2023-01-25T05:48:54;7.22;;;3.78;;
74259;SDS011;62630;55.874;37.516;2023-01-25T05:51:20;6.40;;;3.58;;
74259;SDS011;62630;55.874;37.516;2023-01-25T05:56:12;6.60;;;3.67;;
74259;SDS011;62630;55.874;37.516;2023-01-25T05:58:38;7.63;;;4.35;;
74259;SDS011;62630;55.874;37.516;2023-01-25T06:01:04;7.53;;;4.75;;
74259;SDS011;62630;55.874;37.516;2023-01-25T06:03:31;5.63;;;3.67;;
74259;SDS011;62630;55.874;37.516;2023-01-25T06:05:58;6.22;;;3.70;;
74259;SDS011;62630;55.874;37.516;2023-01-25T06:08:28;6.03;;;3.67;;
74259;SDS011;62630;55.874;37.516;2023-01-25T06:10:54;5.63;;;3.47;;
74259;SDS011;62630;55.874;37.516;2023-01-25T06:13:20;6.30;;;3.90;;
74259;SDS011;62630;55.874;37.516;2023-01-25T06:15:56;5.75;;;3.80;;
74259;SDS011;62630;55.874;37.516;2023-01-25T06:18:22;6.93;;;3.60;;
74259;SDS011;62630;55.874;37.516;2023-01-25T06:20:51;5.20;;;3.40;;
74259;SDS011;62630;55.874;37.516;2023-01-25T06:23:20;5.57;;;3.45;;
74259;SDS011;62630;55.874;37.516;2023-01-25T06:25:45;4.93;;;3.38;;
74259;SDS011;62630;55.874;37.516;2023-01-25T06:28:11;5.25;;;3.35;;
74259;SDS011;62630;55.874;37.516;2023-01-25T06:30:36;4.38;;;3.47;;
74259;SDS011;62630;55.874;37.516;2023-01-25T06:33:03;7.75;;;3.88;;
74259;SDS011;62630;55.874;37.516;2023-01-25T06:35:30;4.75;;;3.78;;
74259;SDS011;62630;55.874;37.516;2023-01-25T06:37:57;6.80;;;4.10;;
74259;SDS011;62630;55.874;37.516;2023-01-25T06:40:24;7.45;;;4.43;;
74259;SDS011;62630;55.874;37.516;2023-01-25T06:42:54;5.70;;;3.85;;
74259;SDS011;62630;55.874;37.516;2023-01-25T06:45:19;6.70;;;3.80;;
74259;SDS011;62630;55.874;37.516;2023-01-25T06:47:47;4.97;;;3.35;;
74259;SDS011;62630;55.874;37.516;2023-01-25T06:50:13;5.30;;;2.97;;
74259;SDS011;62630;55.874;37.516;2023-01-25T06:52:39;4.53;;;3.25;;
74259;SDS011;62630;55.874;37.516;2023-01-25T06:55:05;4.25;;;3.40;;
74259;SDS011;62630;55.874;37.516;2023-01-25T06:57:32;6.25;;;3.45;;
74259;SDS011;62630;55.874;37.516;2023-01-25T06:59:59;6.55;;;3.35;;
74259;SDS011;62630;55.874;37.516;2023-01-25T07:02:25;5.97;;;3.72;;
74259;SDS011;62630;55.874;37.516;2023-01-25T07:04:51;4.75;;;3.38;;
74259;SDS011;62630;55.874;37.516;2023-01-25T07:07:17;4.95;;;3.10;;
74259;SDS011;62630;55.874;37.516;2023-01-25T07:09:42;5.15;;;3.42;;
74259;SDS011;62630;55.874;37.516;2023-01-25T07:12:08;4.70;;;2.90;;
74259;SDS011;62630;55.874;37.516;2023-01-25T07:14:34;5.97;;;3.40;;
74259;SDS011;62630;55.874;37.516;2023-01-25T07:16:59;5.30;;;3.45;;
74259;SDS011;62630;55.874;37.516;2023-01-25T07:19:25;4.28;;;2.95;;
74259;SDS011;62630;55.874;37.516;2023-01-25T07:21:51;4.75;;;3.22;;
74259;SDS011;62630;55.874;37.516;2023-01-25T07:24:17;5.50;;;3.60;;
74259;SDS011;62630;55.874;37.516;2023-01-25T07:26:44;5.05;;;3.60;;
74259;SDS011;62630;55.874;37.516;2023-01-25T07:29:13;4.50;;;2.85;;
74259;SDS011;62630;55.874;37.516;2023-01-25T07:31:40;4.50;;;3.28;;
74259;SDS011;62630;55.874;37.516;2023-01-25T07:34:07;4.68;;;2.90;;
74259;SDS011;62630;55.874;37.516;2023-01-25T07:38:59;3.13;;;2.33;;
74259;SDS011;62630;55.874;37.516;2023-01-25T07:41:25;5.07;;;2.50;;
74259;SDS011;62630;55.874;37.516;2023-01-25T07:43:51;3.75;;;2.50;;
74259;SDS011;62630;55.874;37.516;2023-01-25T07:46:23;3.53;;;2.70;;
74259;SDS011;62630;55.874;37.516;2023-01-25T07:49:26;4.07;;;2.80;;
74259;SDS011;62630;55.874;37.516;2023-01-25T07:52:13;4.07;;;2.88;;
74259;SDS011;62630;55.874;37.516;2023-01-25T07:57:44;5.60;;;3.53;;
74259;SDS011;62630;55.874;37.516;2023-01-25T08:00:22;4.50;;;2.72;;
74259;SDS011;62630;55.874;37.516;2023-01-25T08:03:39;4.18;;;2.92;;
74259;SDS011;62630;55.874;37.516;2023-01-25T08:09:36;6.47;;;3.13;;
74259;SDS011;62630;55.874;37.516;2023-01-25T08:12:28;5.60;;;3.35;;
74259;SDS011;62630;55.874;37.516;2023-01-25T08:14:55;7.38;;;3.55;;
74259;SDS011;62630;55.874;37.516;2023-01-25T08:17:32;6.00;;;3.63;;
74259;SDS011;62630;55.874;37.516;2023-01-25T08:19:58;5.50;;;3.10;;
74259;SDS011;62630;55.874;37.516;2023-01-25T08:22:28;6.00;;;3.30;;
74259;SDS011;62630;55.874;37.516;2023-01-25T08:24:53;5.57;;;3.08;;
74259;SDS011;62630;55.874;37.516;2023-01-25T08:27:19;5.47;;;2.90;;
74259;SDS011;62630;55.874;37.516;2023-01-25T08:29:45;5.57;;;3.00;;
74259;SDS011;62630;55.874;37.516;2023-01-25T08:32:11;4.15;;;3.00;;
74259;SDS011;62630;55.874;37.516;2023-01-25T08:34:36;5.72;;;3.70;;
74259;SDS011;62630;55.874;37.516;2023-01-25T08:37:03;4.68;;;3.28;;
74259;SDS011;62630;55.874;37.516;2023-01-25T08:39:29;5.00;;;2.70;;
74259;SDS011;62630;55.874;37.516;2023-01-25T08:41:54;6.75;;;3.45;;
74259;SDS011;62630;55.874;37.516;2023-01-25T08:44:20;5.32;;;3.33;;
74259;SDS011;62630;55.874;37.516;2023-01-25T08:46:48;3.92;;;3.00;;
74259;SDS011;62630;55.874;37.516;2023-01-25T08:49:14;5.10;;;3.58;;
74259;SDS011;62630;55.874;37.516;2023-01-25T08:51:40;5.75;;;3.33;;
74259;SDS011;62630;55.874;37.516;2023-01-25T08:54:06;4.75;;;2.92;;
74259;SDS011;62630;55.874;37.516;2023-01-25T08:56:41;4.45;;;3.33;;
74259;SDS011;62630;55.874;37.516;2023-01-25T08:59:08;4.15;;;2.97;;
74259;SDS011;62630;55.874;37.516;2023-01-25T09:01:36;3.90;;;2.63;;
74259;SDS011;62630;55.874;37.516;2023-01-25T09:04:01;5.28;;;2.85;;
74259;SDS011;62630;55.874;37.516;2023-01-25T09:06:27;5.10;;;3.00;;
74259;SDS011;62630;55.874;37.516;2023-01-25T09:08:52;8.73;;;3.30;;
74259;SDS011;62630;55.874;37.516;2023-01-25T09:11:20;4.38;;;2.92;;
74259;SDS011;62630;55.874;37.516;2023-01-25T09:13:46;5.55;;;3.13;;
74259;SDS011;62630;55.874;37.516;2023-01-25T09:16:15;6.22;;;3.08;;
74259;SDS011;62630;55.874;37.516;2023-01-25T09:18:43;5.10;;;2.67;;
74259;SDS011;62630;55.874;37.516;2023-01-25T09:21:13;7.10;;;3.20;;
74259;SDS011;62630;55.874;37.516;2023-01-25T09:23:41;4.43;;;2.72;;
74259;SDS011;62630;55.874;37.516;2023-01-25T09:28:35;4.43;;;2.70;;
74259;SDS011;62630;55.874;37.516;2023-01-25T09:31:02;4.50;;;2.83;;
74259;SDS011;62630;55.874;37.516;2023-01-25T09:33:31;3.55;;;2.58;;
74259;SDS011;62630;55.874;37.516;2023-01-25T09:35:59;6.28;;;3.33;;
74259;SDS011;62630;55.874;37.516;2023-01-25T09:38:25;5.25;;;3.10;;
74259;SDS011;62630;55.874;37.516;2023-01-25T09:54:38;8.30;;;3.85;;
74259;SDS011;62630;55.874;37.516;2023-01-25T09:57:15;6.40;;;3.53;;
74259;SDS011;62630;55.874;37.516;2023-01-25T09:59:44;7.85;;;4.00;;
74259;SDS011;62630;55.874;37.516;2023-01-25T10:05:06;5.00;;;2.97;;
74259;SDS011;62630;55.874;37.516;2023-01-25T10:07:44;5.95;;;2.92;;
74259;SDS011;62630;55.874;37.516;2023-01-25T10:13:14;4.88;;;2.90;;
74259;SDS011;62630;55.874;37.516;2023-01-25T10:15:49;3.30;;;2.40;;
74259;SDS011;62630;55.874;37.516;2023-01-25T10:21:15;5.13;;;3.10;;
74259;SDS011;62630;55.874;37.516;2023-01-25T10:24:02;3.95;;;2.65;;
74259;SDS011;62630;55.874;37.516;2023-01-25T10:26:47;4.63;;;2.95;;
74259;SDS011;62630;55.874;37.516;2023-01-25T10:29:21;6.30;;;3.03;;
74259;SDS011;62630;55.874;37.516;2023-01-25T10:31:52;5.57;;;3.13;;
74259;SDS011;62630;55.874;37.516;2023-01-25T10:36:48;5.20;;;3.28;;
74259;SDS011;62630;55.874;37.516;2023-01-25T10:39:18;7.72;;;4.03;;
74259;SDS011;62630;55.874;37.516;2023-01-25T10:41:45;5.43;;;3.40;;
74259;SDS011;62630;55.874;37.516;2023-01-25T10:44:34;9.38;;;4.50;;
74259;SDS011;62630;55.874;37.516;2023-01-25T10:47:04;5.72;;;3.60;;
74259;SDS011;62630;55.874;37.516;2023-01-25T10:55:21;5.32;;;3.90;;
74259;SDS011;62630;55.874;37.516;2023-01-25T11:00:24;8.07;;;4.47;;
74259;SDS011;62630;55.874;37.516;2023-01-25T11:02:53;6.65;;;4.35;;
74259;SDS011;62630;55.874;37.516;2023-01-25T11:05:32;5.95;;;3.63;;
74259;SDS011;62630;55.874;37.516;2023-01-25T11:10:55;8.35;;;4.03;;
74259;SDS011;62630;55.874;37.516;2023-01-25T11:13:28;8.88;;;3.85;;
74259;SDS011;62630;55.874;37.516;2023-01-25T11:18:51;6.32;;;4.13;;
74259;SDS011;62630;55.874;37.516;2023-01-25T11:27:10;6.00;;;3.38;;
74259;SDS011;62630;55.874;37.516;2023-01-25T11:30:07;5.75;;;3.58;;
74259;SDS011;62630;55.874;37.516;2023-01-25T11:32:43;5.30;;;3.55;;
74259;SDS011;62630;55.874;37.516;2023-01-25T11:35:16;7.95;;;4.13;;
74259;SDS011;62630;55.874;37.516;2023-01-25T11:40:38;7.15;;;3.58;;
74259;SDS011;62630;55.874;37.516;2023-01-25T12:06:08;4.22;;;2.92;;
74259;SDS011;62630;55.874;37.516;2023-01-25T12:11:59;5.05;;;2.95;;
74259;SDS011;62630;55.874;37.516;2023-01-25T12:14:47;6.88;;;3.03;;
74259;SDS011;62630;55.874;37.516;2023-01-25T12:17:22;5.07;;;3.25;;
74259;SDS011;62630;55.874;37.516;2023-01-25T12:31:52;4.30;;;2.78;;
74259;SDS011;62630;55.874;37.516;2023-01-25T12:42:39;7.07;;;3.08;;
74259;SDS011;62630;55.874;37.516;2023-01-25T12:45:24;5.75;;;3.15;;
74259;SDS011;62630;55.874;37.516;2023-01-25T12:53:26;4.93;;;3.55;;
74259;SDS011;62630;55.874;37.516;2023-01-25T12:56:05;6.60;;;3.13;;
74259;SDS011;62630;55.874;37.516;2023-01-25T13:11:52;6.47;;;3.00;;
74259;SDS011;62630;55.874;37.516;2023-01-25T13:14:27;8.07;;;3.22;;
74259;SDS011;62630;55.874;37.516;2023-01-25T13:20:02;6.68;;;3.30;;
74259;SDS011;62630;55.874;37.516;2023-01-25T13:23:31;7.82;;;3.38;;
74259;SDS011;62630;55.874;37.516;2023-01-25T13:28:51;4.57;;;2.88;;
74259;SDS011;62630;55.874;37.516;2023-01-25T13:37:17;5.35;;;2.75;;
74259;SDS011;62630;55.874;37.516;2023-01-25T13:42:30;6.18;;;3.75;;
74259;SDS011;62630;55.874;37.516;2023-01-25T13:44:58;6.22;;;3.53;;
74259;SDS011;62630;55.874;37.516;2023-01-25T13:47:36;6.63;;;3.20;;
74259;SDS011;62630;55.874;37.516;2023-01-25T13:50:15;9.43;;;3.85;;
74259;SDS011;62630;55.874;37.516;2023-01-25T13:53:02;6.70;;;3.08;;
74259;SDS011;62630;55.874;37.516;2023-01-25T13:55:55;6.22;;;3.00;;
74259;SDS011;62630;55.874;37.516;2023-01-25T13:58:23;6.90;;;3.50;;
74259;SDS011;62630;55.874;37.516;2023-01-25T14:03:28;6.95;;;3.55;;
74259;SDS011;62630;55.874;37.516;2023-01-25T14:05:59;6.45;;;3.67;;
74259;SDS011;62630;55.874;37.516;2023-01-25T14:08:26;10.85;;;3.65;;
74259;SDS011;62630;55.874;37.516;2023-01-25T14:10:56;10.02;;;3.63;;
74259;SDS011;62630;55.874;37.516;2023-01-25T14:13:24;7.63;;;4.72;;
74259;SDS011;62630;55.874;37.516;2023-01-25T14:15:52;7.72;;;3.75;;
74259;SDS011;62630;55.874;37.516;2023-01-25T14:18:33;7.50;;;3.60;;
74259;SDS011;62630;55.874;37.516;2023-01-25T14:21:15;8.75;;;3.85;;
74259;SDS011;62630;55.874;37.516;2023-01-25T14:23:44;11.38;;;4.22;;
74259;SDS011;62630;55.874;37.516;2023-01-25T14:26:17;8.05;;;3.90;;
74259;SDS011;62630;55.874;37.516;2023-01-25T14:28:50;7.07;;;4.15;;
74259;SDS011;62630;55.874;37.516;2023-01-25T14:31:24;8.00;;;4.03;;
74259;SDS011;62630;55.874;37.516;2023-01-25T14:33:54;10.52;;;4.30;;
74259;SDS011;62630;55.874;37.516;2023-01-25T14:36:27;7.55;;;5.00;;
74259;SDS011;62630;55.874;37.516;2023-01-25T14:38:54;9.00;;;4.55;;
74259;SDS011;62630;55.874;37.516;2023-01-25T14:41:33;7.22;;;4.32;;
74259;SDS011;62630;55.874;37.516;2023-01-25T14:44:05;15.48;;;5.50;;
74259;SDS011;62630;55.874;37.516;2023-01-25T14:46:37;7.90;;;4.03;;
74259;SDS011;62630;55.874;37.516;2023-01-25T14:54:27;7.93;;;4.32;;
74259;SDS011;62630;55.874;37.516;2023-01-25T14:56:59;11.27;;;5.07;;
74259;SDS011;62630;55.874;37.516;2023-01-25T15:02:38;9.48;;;5.18;;
74259;SDS011;62630;55.874;37.516;2023-01-25T15:05:20;10.48;;;5.20;;
74259;SDS011;62630;55.874;37.516;2023-01-25T15:12:54;10.45;;;4.28;;
74259;SDS011;62630;55.874;37.516;2023-01-25T15:15:22;8.80;;;4.28;;
74259;SDS011;62630;55.874;37.516;2023-01-25T15:17:49;8.55;;;4.50;;
74259;SDS011;62630;55.874;37.516;2023-01-25T15:20:28;10.73;;;5.40;;
74259;SDS011;62630;55.874;37.516;2023-01-25T15:22:58;11.18;;;6.07;;
74259;SDS011;62630;55.874;37.516;2023-01-25T15:25:47;9.23;;;4.88;;
74259;SDS011;62630;55.874;37.516;2023-01-25T15:28:18;13.93;;;5.00;;
74259;SDS011;62630;55.874;37.516;2023-01-25T15:30:43;11.40;;;5.38;;
74259;SDS011;62630;55.874;37.516;2023-01-25T15:33:14;8.55;;;4.65;;
74259;SDS011;62630;55.874;37.516;2023-01-25T15:35:52;9.15;;;4.78;;
74259;SDS011;62630;55.874;37.516;2023-01-25T15:38:19;11.13;;;5.20;;
74259;SDS011;62630;55.874;37.516;2023-01-25T15:40:47;8.40;;;4.55;;
74259;SDS011;62630;55.874;37.516;2023-01-25T15:43:14;11.15;;;5.32;;
74259;SDS011;62630;55.874;37.516;2023-01-25T15:45:41;8.80;;;4.22;;
74259;SDS011;62630;55.874;37.516;2023-01-25T15:48:11;8.32;;;4.30;;
74259;SDS011;62630;55.874;37.516;2023-01-25T15:50:40;8.20;;;4.57;;
74259;SDS011;62630;55.874;37.516;2023-01-25T15:53:10;10.35;;;4.95;;
74259;SDS011;62630;55.874;37.516;2023-01-25T15:58:08;8.88;;;4.30;;
74259;SDS011;62630;55.874;37.516;2023-01-25T16:00:38;8.82;;;4.35;;
74259;SDS011;62630;55.874;37.516;2023-01-25T16:03:07;9.45;;;4.32;;
74259;SDS011;62630;55.874;37.516;2023-01-25T16:05:34;10.35;;;4.75;;
74259;SDS011;62630;55.874;37.516;2023-01-25T16:07:59;10.05;;;5.38;;
74259;SDS011;62630;55.874;37.516;2023-01-25T16:10:26;8.02;;;4.47;;
74259;SDS011;62630;55.874;37.516;2023-01-25T16:12:52;11.05;;;4.70;;
74259;SDS011;62630;55.874;37.516;2023-01-25T16:15:18;8.13;;;4.40;;
74259;SDS011;62630;55.874;37.516;2023-01-25T16:17:44;9.63;;;4.65;;
74259;SDS011;62630;55.874;37.516;2023-01-25T16:20:14;10.48;;;4.18;;
74259;SDS011;62630;55.874;37.516;2023-01-25T16:22:41;8.25;;;4.22;;
74259;SDS011;62630;55.874;37.516;2023-01-25T16:25:07;10.13;;;4.90;;
74259;SDS011;62630;55.874;37.516;2023-01-25T16:27:36;8.52;;;4.30;;
74259;SDS011;62630;55.874;37.516;2023-01-25T16:30:03;10.60;;;4.70;;
74259;SDS011;62630;55.874;37.516;2023-01-25T16:32:33;8.75;;;4.35;;
74259;SDS011;62630;55.874;37.516;2023-01-25T16:35:00;10.40;;;5.10;;
74259;SDS011;62630;55.874;37.516;2023-01-25T16:37:26;10.82;;;4.93;;
74259;SDS011;62630;55.874;37.516;2023-01-25T16:39:52;10.82;;;5.00;;
74259;SDS011;62630;55.874;37.516;2023-01-25T16:42:18;7.57;;;4.30;;
74259;SDS011;62630;55.874;37.516;2023-01-25T16:44:45;9.68;;;4.82;;
74259;SDS011;62630;55.874;37.516;2023-01-25T16:47:32;9.13;;;4.63;;
74259;SDS011;62630;55.874;37.516;2023-01-25T16:49:58;10.38;;;5.10;;
74259;SDS011;62630;55.874;37.516;2023-01-25T16:52:23;9.50;;;5.35;;
74259;SDS011;62630;55.874;37.516;2023-01-25T16:54:49;8.77;;;4.75;;
74259;SDS011;62630;55.874;37.516;2023-01-25T16:57:15;9.57;;;4.90;;
74259;SDS011;62630;55.874;37.516;2023-01-25T16:59:40;10.50;;;5.18;;
74259;SDS011;62630;55.874;37.516;2023-01-25T17:02:07;7.72;;;4.88;;
74259;SDS011;62630;55.874;37.516;2023-01-25T17:04:36;10.48;;;4.43;;
74259;SDS011;62630;55.874;37.516;2023-01-25T17:07:01;9.00;;;4.72;;
74259;SDS011;62630;55.874;37.516;2023-01-25T17:09:27;10.75;;;5.25;;
74259;SDS011;62630;55.874;37.516;2023-01-25T17:11:55;5.93;;;3.53;;
74259;SDS011;62630;55.874;37.516;2023-01-25T17:14:22;10.63;;;4.72;;
74259;SDS011;62630;55.874;37.516;2023-01-25T17:16:47;11.63;;;4.68;;
74259;SDS011;62630;55.874;37.516;2023-01-25T17:19:20;11.00;;;4.65;;
74259;SDS011;62630;55.874;37.516;2023-01-25T17:21:46;7.80;;;4.45;;
74259;SDS011;62630;55.874;37.516;2023-01-25T17:24:16;6.78;;;3.88;;
74259;SDS011;62630;55.874;37.516;2023-01-25T17:26:45;7.93;;;4.13;;
74259;SDS011;62630;55.874;37.516;2023-01-25T17:29:10;7.45;;;4.40;;
74259;SDS011;62630;55.874;37.516;2023-01-25T17:31:37;7.72;;;4.35;;
74259;SDS011;62630;55.874;37.516;2023-01-25T17:34:06;9.43;;;4.15;;
74259;SDS011;62630;55.874;37.516;2023-01-25T17:36:35;7.82;;;4.13;;
74259;SDS011;62630;55.874;37.516;2023-01-25T17:39:01;8.13;;;4.00;;